Time;durP1;ratioP1;P1;durP2;ratioP2;P2;SDS_P1;SDS_P2;PMS_P1;PMS_P2;Temp;Humidity;BMP_temperature;BMP_pressure;BME280_temperature;BME280_humidity;BME280_pressure;Samples;Min_cycle;Max_cycle;Signal;HPM_P1;HPM_P2
2022/02/13 00:01:02;;;;;;;9.05;4.18;;;14.80;59.40;;;;;;4210571;28;20036;-60
2022/02/13 00:03:24;;;;;;;4.40;3.38;;;14.80;59.30;;;;;;4227362;27;20131;-60
2022/02/13 00:05:46;;;;;;;9.00;3.78;;;14.90;59.30;;;;;;4217106;28;20044;-61
2022/02/13 00:08:10;;;;;;;7.18;3.85;;;14.90;59.20;;;;;;4193568;28;20155;-61
2022/02/13 00:10:45;;;;;;;5.70;3.97;;;14.90;59.20;;;;;;4193190;28;20076;-60
2022/02/13 00:13:07;;;;;;;7.60;3.83;;;14.90;59.20;;;;;;4184006;28;20063;-61
2022/02/13 00:15:29;;;;;;;9.07;4.18;;;14.90;59.20;;;;;;4176100;28;20152;-60
2022/02/13 00:17:51;;;;;;;5.57;4.00;;;14.90;59.10;;;;;;4176685;28;20048;-60
2022/02/13 00:20:16;;;;;;;7.03;3.30;;;14.90;59.20;;;;;;4177225;28;20069;-60
2022/02/13 00:22:38;;;;;;;7.85;3.83;;;14.90;59.30;;;;;;4203933;28;20043;-60
2022/02/13 00:25:03;;;;;;;8.85;4.05;;;14.90;60.20;;;;;;4210027;28;20102;-61
2022/02/13 00:27:25;;;;;;;8.55;4.05;;;15.00;59.30;;;;;;4208099;28;20058;-61
2022/02/13 00:29:48;;;;;;;5.47;4.07;;;15.00;59.80;;;;;;4191958;28;20067;-60
2022/02/13 00:32:10;;;;;;;9.35;4.00;;;15.10;58.90;;;;;;4193151;28;20055;-60
2022/02/13 00:34:32;;;;;;;7.80;4.50;;;15.20;58.70;;;;;;4194258;28;20068;-60
2022/02/13 00:36:54;;;;;;;6.75;4.10;;;15.20;58.70;;;;;;4193043;28;20543;-61
2022/02/13 00:39:16;;;;;;;5.03;3.83;;;15.20;58.50;;;;;;4193290;28;20480;-60
2022/02/13 00:41:40;;;;;;;6.65;3.92;;;15.20;58.50;;;;;;4193224;28;20097;-60
2022/02/13 00:44:02;;;;;;;8.10;4.10;;;15.20;58.40;;;;;;4193442;28;20044;-61
2022/02/13 00:46:24;;;;;;;7.20;3.55;;;15.20;58.50;;;;;;4192892;28;20469;-60
2022/02/13 00:48:48;;;;;;;5.22;3.75;;;15.10;58.60;;;;;;4196262;28;20575;-60
2022/02/13 00:51:10;;;;;;;9.77;4.32;;;15.10;58.70;;;;;;4209626;28;20140;-60
2022/02/13 00:53:32;;;;;;;4.93;3.53;;;15.10;58.60;;;;;;4208088;28;20051;-60
2022/02/13 00:55:55;;;;;;;8.25;3.72;;;15.10;58.70;;;;;;4209751;28;20056;-60
2022/02/13 00:58:21;;;;;;;3.97;3.05;;;15.10;58.60;;;;;;4225364;28;20547;-60
2022/02/13 01:00:44;;;;;;;6.40;3.75;;;15.10;58.60;;;;;;4200174;28;20569;-60
2022/02/13 01:03:06;;;;;;;7.90;4.28;;;15.10;58.60;;;;;;4211816;28;20483;-60
2022/02/13 01:05:28;;;;;;;8.60;4.13;;;15.10;58.50;;;;;;4192603;28;20140;-60
2022/02/13 01:07:50;;;;;;;6.40;4.18;;;15.10;58.50;;;;;;4210263;27;20433;-61
2022/02/13 01:10:13;;;;;;;7.28;3.83;;;15.10;58.50;;;;;;4226396;28;20467;-60
2022/02/13 01:12:35;;;;;;;6.10;3.60;;;15.10;58.60;;;;;;4226319;27;20055;-61
2022/02/13 01:14:59;;;;;;;7.82;4.32;;;15.20;58.50;;;;;;4226307;28;20055;-60
2022/02/13 01:17:21;;;;;;;8.90;4.05;;;15.30;58.30;;;;;;4222411;28;20402;-60
2022/02/13 01:19:45;;;;;;;5.80;4.25;;;15.40;58.10;;;;;;4209660;28;20048;-61
2022/02/13 01:22:07;;;;;;;6.82;3.90;;;15.40;57.80;;;;;;4214068;28;20098;-59
2022/02/13 01:24:30;;;;;;;9.52;4.28;;;15.50;57.70;;;;;;4209587;28;20070;-60
2022/02/13 01:26:52;;;;;;;7.03;3.60;;;15.50;57.70;;;;;;4209304;28;20089;-60
2022/02/13 01:29:15;;;;;;;9.30;4.53;;;15.50;57.60;;;;;;4209197;28;20484;-60
2022/02/13 01:31:41;;;;;;;9.85;4.18;;;15.50;57.50;;;;;;4192520;28;20384;-61
2022/02/13 01:34:03;;;;;;;6.93;4.30;;;15.60;57.40;;;;;;4193020;28;20048;-60
2022/02/13 01:36:26;;;;;;;6.20;3.75;;;15.60;57.50;;;;;;4196988;28;20388;-61
2022/02/13 01:38:49;;;;;;;4.85;3.60;;;15.60;57.30;;;;;;4208993;28;20055;-60
2022/02/13 01:41:11;;;;;;;10.18;4.40;;;15.60;57.30;;;;;;4209069;28;20040;-61
2022/02/13 01:43:33;;;;;;;8.45;4.85;;;15.60;58.00;;;;;;4207430;28;20173;-60
2022/02/13 01:45:56;;;;;;;6.40;4.15;;;15.60;57.40;;;;;;4207724;28;20126;-60
2022/02/13 01:48:20;;;;;;;5.03;3.78;;;15.50;57.30;;;;;;4209033;28;20751;-60
2022/02/13 01:50:43;;;;;;;7.32;3.70;;;15.50;57.40;;;;;;4221500;28;21703;-61
2022/02/13 01:53:24;;;;;;;7.50;4.65;;;15.60;57.40;;;;;;4209031;28;20074;-60
2022/02/13 01:55:47;;;;;;;9.80;4.75;;;15.60;57.20;;;;;;4218726;28;20047;-61
2022/02/13 01:58:09;;;;;;;8.38;4.53;;;15.70;57.30;;;;;;4225553;27;20096;-60
2022/02/13 02:00:33;;;;;;;8.95;4.72;;;15.70;57.00;;;;;;4208995;28;20551;-60
2022/02/13 02:02:55;;;;;;;8.95;4.45;;;15.80;56.80;;;;;;4207021;28;20109;-61
2022/02/13 02:05:19;;;;;;;10.93;3.80;;;15.90;56.50;;;;;;4205879;28;20458;-61
2022/02/13 02:07:41;;;;;;;5.25;3.90;;;16.00;56.30;;;;;;4191873;28;20484;-61
2022/02/13 02:10:04;;;;;;;8.07;4.35;;;16.00;56.10;;;;;;4192100;28;20052;-61
2022/02/13 02:12:27;;;;;;;7.38;3.72;;;16.00;56.20;;;;;;4192341;28;20058;-60
2022/02/13 02:14:49;;;;;;;6.85;4.78;;;15.90;56.20;;;;;;4192463;28;20040;-61
2022/02/13 02:17:13;;;;;;;8.32;4.10;;;15.90;56.30;;;;;;4208818;28;20051;-60
2022/02/13 02:19:37;;;;;;;7.05;4.47;;;15.90;56.50;;;;;;4222776;28;20427;-60
2022/02/13 02:22:00;;;;;;;6.28;4.18;;;15.90;56.40;;;;;;4225571;28;20047;-60
2022/02/13 02:24:24;;;;;;;7.47;3.90;;;15.80;56.30;;;;;;4225876;28;20047;-60
2022/02/13 02:26:46;;;;;;;5.38;3.85;;;15.80;56.50;;;;;;4225745;28;20185;-60
2022/02/13 02:29:08;;;;;;;9.50;4.45;;;15.80;56.50;;;;;;4224010;28;20541;-60
2022/02/13 02:31:30;;;;;;;6.85;4.68;;;15.80;56.50;;;;;;4225705;28;20407;-61
2022/02/13 02:33:52;;;;;;;6.95;4.35;;;15.80;56.50;;;;;;4224237;28;20047;-59
2022/02/13 02:36:16;;;;;;;8.88;4.45;;;15.90;56.60;;;;;;4207549;28;20159;-60
2022/02/13 02:38:37;;;;;;;7.05;4.25;;;15.80;56.40;;;;;;4209921;28;20063;-60
2022/02/13 02:41:01;;;;;;;6.25;4.43;;;15.80;56.40;;;;;;4207561;28;20485;-60
2022/02/13 02:43:23;;;;;;;7.90;4.07;;;15.80;56.40;;;;;;4208583;28;20050;-60
2022/02/13 02:45:45;;;;;;;10.23;4.10;;;15.80;56.40;;;;;;4208849;28;20131;-60
2022/02/13 02:48:07;;;;;;;7.82;4.43;;;15.70;56.40;;;;;;4216695;28;20048;-60
2022/02/13 02:50:30;;;;;;;8.45;4.32;;;15.80;56.50;;;;;;4226880;28;20046;-60
2022/02/13 02:52:52;;;;;;;7.63;3.70;;;15.80;56.40;;;;;;4227997;27;20049;-60
2022/02/13 02:55:14;;;;;;;7.60;4.43;;;15.90;56.20;;;;;;4228408;27;20043;-60
2022/02/13 02:57:38;;;;;;;7.63;4.30;;;15.90;56.00;;;;;;4228532;27;20051;-60
2022/02/13 03:00:00;;;;;;;9.98;4.60;;;15.90;55.90;;;;;;4198617;28;20063;-60
2022/02/13 03:02:24;;;;;;;6.80;4.25;;;15.90;55.90;;;;;;4225026;27;20126;-60
2022/02/13 03:04:46;;;;;;;7.63;4.47;;;15.80;55.90;;;;;;4211628;28;20048;-60
2022/02/13 03:07:08;;;;;;;6.30;4.15;;;15.90;56.00;;;;;;4218050;28;20589;-60
2022/02/13 03:09:30;;;;;;;8.07;5.07;;;15.80;55.90;;;;;;4227936;27;20046;-60
2022/02/13 03:11:53;;;;;;;8.32;4.43;;;15.80;56.00;;;;;;4227553;27;20067;-61
2022/02/13 03:14:17;;;;;;;9.38;4.45;;;15.80;56.00;;;;;;4227958;28;20051;-60
2022/02/13 03:16:39;;;;;;;8.20;4.88;;;15.80;56.00;;;;;;4228351;27;20052;-60
2022/02/13 03:19:01;;;;;;;7.60;4.95;;;15.80;56.00;;;;;;4216162;27;20108;-60
2022/02/13 03:21:23;;;;;;;9.18;4.45;;;15.80;56.10;;;;;;4194368;28;20052;-60
2022/02/13 03:23:45;;;;;;;8.77;4.15;;;15.70;56.10;;;;;;4194275;28;20048;-60
2022/02/13 03:26:08;;;;;;;6.47;4.38;;;15.70;56.30;;;;;;4194379;28;20435;-60
2022/02/13 03:28:33;;;;;;;5.55;4.25;;;15.70;56.40;;;;;;4194475;28;20504;-61
2022/02/13 03:30:56;;;;;;;9.60;4.70;;;15.70;56.40;;;;;;4194401;28;20048;-60
2022/02/13 03:33:19;;;;;;;12.93;5.28;;;15.70;56.20;;;;;;4208098;28;20055;-60
2022/02/13 03:35:42;;;;;;;8.15;4.65;;;15.70;56.10;;;;;;4218036;27;20052;-60
2022/02/13 03:38:05;;;;;;;7.13;4.63;;;15.70;56.20;;;;;;4225774;27;20050;-60
2022/02/13 03:40:27;;;;;;;6.15;4.88;;;15.70;56.10;;;;;;4226516;28;20091;-60
2022/02/13 03:42:49;;;;;;;7.88;5.63;;;15.80;56.00;;;;;;4227682;27;20120;-60
2022/02/13 03:45:12;;;;;;;7.18;4.00;;;15.90;55.90;;;;;;4227973;27;20445;-60
2022/02/13 03:47:36;;;;;;;6.82;4.38;;;15.90;55.70;;;;;;4227708;28;20057;-60
2022/02/13 03:49:58;;;;;;;11.70;4.70;;;15.90;55.60;;;;;;4215826;27;20105;-59
2022/02/13 03:52:21;;;;;;;4.85;4.20;;;15.90;55.60;;;;;;4210776;28;20051;-60
2022/02/13 03:54:43;;;;;;;10.48;4.65;;;15.90;55.60;;;;;;4223474;27;20075;-60
2022/02/13 03:57:06;;;;;;;7.13;4.35;;;15.80;55.60;;;;;;4227322;28;20071;-60
2022/02/13 03:59:28;;;;;;;8.73;4.57;;;15.80;55.70;;;;;;4193714;28;20048;-60
2022/02/13 04:01:50;;;;;;;8.48;4.95;;;15.80;55.90;;;;;;4196838;28;20055;-60
2022/02/13 04:04:13;;;;;;;6.43;4.20;;;15.70;56.00;;;;;;4209700;28;20044;-60
2022/02/13 04:06:35;;;;;;;10.05;5.05;;;15.70;56.10;;;;;;4211020;28;20147;-61
2022/02/13 04:08:58;;;;;;;8.15;4.72;;;15.70;56.00;;;;;;4210399;28;20060;-61
2022/02/13 04:11:20;;;;;;;6.18;4.40;;;15.80;55.90;;;;;;4222284;27;20053;-61
2022/02/13 04:13:44;;;;;;;8.30;5.28;;;15.80;55.70;;;;;;4226996;27;20058;-60
2022/02/13 04:16:06;;;;;;;7.57;4.78;;;15.90;55.60;;;;;;4227147;27;20100;-61
2022/02/13 04:18:29;;;;;;;9.25;5.20;;;15.90;55.40;;;;;;4226988;27;20089;-60
2022/02/13 04:20:53;;;;;;;6.68;5.07;;;15.90;55.40;;;;;;4224892;27;20093;-61
2022/02/13 04:23:15;;;;;;;7.07;4.55;;;15.90;55.40;;;;;;4209948;28;20047;-61
2022/02/13 04:25:37;;;;;;;7.35;4.75;;;15.90;55.30;;;;;;4218618;27;20059;-60
2022/02/13 04:28:00;;;;;;;9.10;4.95;;;15.90;55.40;;;;;;4227186;27;20058;-60
2022/02/13 04:30:22;;;;;;;10.15;4.90;;;15.90;55.50;;;;;;4226844;27;20051;-61
2022/02/13 04:32:44;;;;;;;8.13;5.07;;;15.90;55.50;;;;;;4226893;27;20050;-61
2022/02/13 04:35:07;;;;;;;6.18;4.30;;;16.00;55.40;;;;;;4214673;28;20052;-61
2022/02/13 04:37:30;;;;;;;5.97;5.05;;;16.00;55.30;;;;;;4223298;27;20134;-61
2022/02/13 04:39:52;;;;;;;7.20;4.85;;;16.00;55.20;;;;;;4192981;28;20397;-61
2022/02/13 04:42:14;;;;;;;9.13;4.70;;;16.00;55.10;;;;;;4192891;28;20099;-60
2022/02/13 04:44:36;;;;;;;5.80;4.55;;;16.00;55.10;;;;;;4193135;28;20132;-61
2022/02/13 04:46:59;;;;;;;7.30;5.20;;;16.00;55.20;;;;;;4193079;28;20044;-61
2022/02/13 04:49:21;;;;;;;7.53;4.97;;;15.90;55.40;;;;;;4207755;28;20058;-61
2022/02/13 04:51:43;;;;;;;9.35;4.50;;;15.90;55.40;;;;;;4226450;27;20464;-61
2022/02/13 04:54:07;;;;;;;9.82;5.20;;;15.90;55.40;;;;;;4224860;27;20046;-61
2022/02/13 04:56:29;;;;;;;8.63;4.32;;;15.90;55.40;;;;;;4226688;28;20047;-60
2022/02/13 04:58:51;;;;;;;7.38;5.05;;;15.90;56.20;;;;;;4209068;28;20392;-59
2022/02/13 05:01:13;;;;;;;9.98;5.10;;;15.80;55.70;;;;;;4209559;28;20445;-59
2022/02/13 05:03:35;;;;;;;8.23;5.18;;;15.80;55.80;;;;;;4218470;27;20054;-60
2022/02/13 05:05:57;;;;;;;10.02;5.53;;;15.80;55.70;;;;;;4209730;28;20048;-59
2022/02/13 05:08:20;;;;;;;8.73;5.28;;;15.80;55.60;;;;;;4210087;28;20143;-59
2022/02/13 05:10:43;;;;;;;7.57;5.00;;;15.90;55.60;;;;;;4219983;28;20047;-59
2022/02/13 05:13:05;;;;;;;8.13;4.72;;;15.90;55.80;;;;;;4226203;28;20044;-59
2022/02/13 05:15:27;;;;;;;6.70;4.85;;;15.90;55.50;;;;;;4226197;28;20116;-59
2022/02/13 05:17:49;;;;;;;6.30;5.57;;;15.90;55.60;;;;;;4209251;28;20080;-60
2022/02/13 05:20:12;;;;;;;9.13;4.57;;;15.90;55.60;;;;;;4199605;28;20048;-60
2022/02/13 05:22:34;;;;;;;9.52;5.32;;;15.80;55.60;;;;;;4192621;28;20052;-59
2022/02/13 05:24:57;;;;;;;10.52;4.90;;;15.90;55.80;;;;;;4192758;28;20040;-59
2022/02/13 05:27:21;;;;;;;7.70;4.82;;;15.90;55.60;;;;;;4198183;28;20055;-59
2022/02/13 05:29:42;;;;;;;7.03;4.95;;;16.00;55.40;;;;;;4194444;28;20053;-59
2022/02/13 05:32:06;;;;;;;9.40;4.93;;;16.10;55.20;;;;;;4192300;28;20167;-59
2022/02/13 05:34:28;;;;;;;7.55;4.97;;;16.20;54.90;;;;;;4192432;28;20481;-60
2022/02/13 05:36:50;;;;;;;8.23;5.22;;;16.30;54.70;;;;;;4193595;28;20056;-59
2022/02/13 05:39:12;;;;;;;7.07;4.63;;;16.40;54.50;;;;;;4192343;28;20053;-59
2022/02/13 05:41:35;;;;;;;9.55;5.28;;;16.40;54.40;;;;;;4192604;28;20481;-59
2022/02/13 05:43:58;;;;;;;9.48;5.00;;;16.40;54.40;;;;;;4193439;28;20044;-59
2022/02/13 05:46:20;;;;;;;8.73;5.28;;;16.40;55.10;;;;;;4192227;28;20052;-59
2022/02/13 05:48:45;;;;;;;8.43;5.32;;;16.40;54.40;;;;;;4200709;28;20052;-59
2022/02/13 05:51:07;;;;;;;6.57;4.80;;;16.40;54.50;;;;;;4192242;28;20175;-59
2022/02/13 05:53:30;;;;;;;9.38;4.30;;;16.30;54.50;;;;;;4192276;28;20052;-59
2022/02/13 05:55:52;;;;;;;8.45;5.10;;;16.30;54.70;;;;;;4191242;28;20086;-59
2022/02/13 05:58:15;;;;;;;8.75;4.55;;;16.20;54.90;;;;;;4192194;28;20125;-59
2022/02/13 06:00:39;;;;;;;7.22;4.57;;;16.10;55.90;;;;;;4192272;28;20143;-59
2022/02/13 06:03:01;;;;;;;9.40;5.03;;;16.10;55.30;;;;;;4201307;28;20369;-59
2022/02/13 06:05:23;;;;;;;7.18;4.90;;;16.20;55.20;;;;;;4194055;28;20135;-59
2022/02/13 06:07:45;;;;;;;5.80;4.35;;;16.20;54.90;;;;;;4194686;28;20053;-59
2022/02/13 06:10:09;;;;;;;9.93;5.45;;;16.30;54.80;;;;;;4208946;28;20064;-59
2022/02/13 06:12:31;;;;;;;6.30;4.53;;;16.30;54.80;;;;;;4208878;28;20050;-59
2022/02/13 06:14:53;;;;;;;10.98;5.13;;;16.30;55.50;;;;;;4225727;28;20074;-59
2022/02/13 06:17:17;;;;;;;6.95;4.65;;;16.30;54.80;;;;;;4219087;28;20059;-59
2022/02/13 06:19:39;;;;;;;7.40;4.63;;;16.30;54.80;;;;;;4218762;28;20055;-60
2022/02/13 06:22:01;;;;;;;7.40;5.07;;;16.40;54.70;;;;;;4211836;27;20063;-59
2022/02/13 06:24:23;;;;;;;5.32;4.65;;;16.40;54.60;;;;;;4210785;28;20077;-59
2022/02/13 06:26:47;;;;;;;7.15;4.30;;;16.40;54.40;;;;;;4214616;28;20040;-59
2022/02/13 06:29:10;;;;;;;7.28;5.32;;;16.50;54.40;;;;;;4210802;28;20402;-59
2022/02/13 06:31:32;;;;;;;5.03;4.28;;;16.50;54.40;;;;;;4215615;27;20043;-59
2022/02/13 06:33:55;;;;;;;6.40;4.35;;;16.50;54.30;;;;;;4212385;28;20433;-59
2022/02/13 06:36:17;;;;;;;7.10;4.43;;;16.50;54.30;;;;;;4203950;28;20048;-59
2022/02/13 06:38:39;;;;;;;7.38;4.63;;;16.40;54.30;;;;;;4194956;28;20144;-59
2022/02/13 06:41:01;;;;;;;6.57;4.55;;;16.40;54.50;;;;;;4195202;28;20059;-59
2022/02/13 06:43:24;;;;;;;6.60;4.63;;;16.40;54.60;;;;;;4211371;28;20039;-59
2022/02/13 06:45:46;;;;;;;9.80;4.95;;;16.30;54.70;;;;;;4220567;27;20051;-59
2022/02/13 06:48:08;;;;;;;8.95;4.70;;;16.30;54.80;;;;;;4226280;27;20451;-59
2022/02/13 06:50:32;;;;;;;6.05;4.35;;;16.20;54.90;;;;;;4228600;27;20054;-59
2022/02/13 06:52:55;;;;;;;6.93;5.05;;;16.10;55.10;;;;;;4226860;27;20070;-59
2022/02/13 06:55:18;;;;;;;6.82;4.55;;;16.10;55.30;;;;;;4211768;28;20476;-59
2022/02/13 06:57:47;;;;;;;9.90;4.70;;;16.10;55.30;;;;;;4197895;28;20052;-59
2022/02/13 07:00:10;;;;;;;6.43;4.40;;;16.10;55.30;;;;;;4194560;28;20048;-59
2022/02/13 07:02:32;;;;;;;7.03;4.40;;;16.10;55.20;;;;;;4194681;28;20064;-60
2022/02/13 07:04:54;;;;;;;9.25;4.78;;;16.20;55.10;;;;;;4195197;28;20132;-58
2022/02/13 07:07:18;;;;;;;5.93;4.55;;;16.20;55.10;;;;;;4228036;27;20788;-59
2022/02/13 07:09:40;;;;;;;6.65;4.90;;;16.30;55.40;;;;;;4228109;27;20057;-59
2022/02/13 07:12:09;;;;;;;11.25;4.80;;;16.30;55.30;;;;;;4217918;28;20545;-59
2022/02/13 07:14:31;;;;;;;7.20;5.15;;;16.40;55.10;;;;;;4209747;28;20072;-59
2022/02/13 07:16:53;;;;;;;7.35;4.82;;;16.40;55.00;;;;;;4209831;28;20074;-59
2022/02/13 07:19:15;;;;;;;8.18;5.00;;;16.40;54.90;;;;;;4211369;28;20062;-59
2022/02/13 07:21:37;;;;;;;6.47;4.40;;;16.50;54.90;;;;;;4195645;28;20082;-59
2022/02/13 07:24:01;;;;;;;5.60;4.65;;;16.50;54.80;;;;;;4192893;28;20056;-59
2022/02/13 07:26:24;;;;;;;6.53;4.68;;;16.50;54.80;;;;;;4192877;28;20056;-59
2022/02/13 07:29:01;;;;;;;5.05;4.45;;;16.40;54.80;;;;;;4193994;28;20115;-60
2022/02/13 07:31:24;;;;;;;6.20;4.30;;;16.40;55.00;;;;;;4194037;28;20400;-59
2022/02/13 07:33:46;;;;;;;6.53;4.68;;;16.30;55.20;;;;;;4197010;28;20127;-59
2022/02/13 07:36:08;;;;;;;6.63;4.50;;;16.20;55.40;;;;;;4209194;28;20047;-59
2022/02/13 07:38:30;;;;;;;7.28;4.72;;;16.20;55.50;;;;;;4210770;28;20050;-59
2022/02/13 07:40:54;;;;;;;8.98;4.93;;;16.20;55.60;;;;;;4227020;27;20055;-59
2022/02/13 07:43:16;;;;;;;4.93;4.45;;;16.20;55.50;;;;;;4210593;28;20054;-58
2022/02/13 07:45:38;;;;;;;7.45;4.60;;;16.20;55.60;;;;;;4210751;28;20055;-59
2022/02/13 07:48:01;;;;;;;6.72;4.90;;;16.10;54.60;;;;;;4211443;28;20133;-59
2022/02/13 07:50:23;;;;;;;7.05;3.92;;;16.20;53.70;;;;;;4211505;27;20101;-58
2022/02/13 07:52:45;;;;;;;8.65;4.40;;;16.20;54.40;;;;;;4223118;27;20042;-59
2022/02/13 07:55:08;;;;;;;6.03;4.40;;;16.20;53.90;;;;;;4221138;27;20150;-59
2022/02/13 07:57:31;;;;;;;6.45;4.88;;;16.20;54.00;;;;;;4210496;28;20068;-59
2022/02/13 07:59:53;;;;;;;6.15;4.20;;;16.20;54.10;;;;;;4210722;28;20044;-59
2022/02/13 08:02:16;;;;;;;6.90;5.25;;;16.30;54.20;;;;;;4213857;28;20051;-58
2022/02/13 08:04:41;;;;;;;4.50;3.90;;;16.40;54.00;;;;;;4210577;28;20097;-58
2022/02/13 08:07:03;;;;;;;5.53;4.00;;;16.50;53.80;;;;;;4218625;27;20055;-59
2022/02/13 08:09:25;;;;;;;4.85;4.32;;;16.50;53.50;;;;;;4210444;28;20059;-59
2022/02/13 08:11:48;;;;;;;6.25;4.18;;;16.60;53.40;;;;;;4209990;28;20131;-59
2022/02/13 08:14:11;;;;;;;4.95;4.00;;;16.70;53.10;;;;;;4193575;28;20045;-59
2022/02/13 08:16:33;;;;;;;7.15;4.50;;;16.80;52.90;;;;;;4209949;28;20078;-59
2022/02/13 08:18:55;;;;;;;8.00;5.22;;;16.90;52.60;;;;;;4210578;28;20369;-59
2022/02/13 08:21:18;;;;;;;6.18;4.30;;;17.00;52.30;;;;;;4210132;28;20541;-59
2022/02/13 08:23:40;;;;;;;4.40;4.00;;;17.10;52.10;;;;;;4218852;28;20554;-59
2022/02/13 08:26:03;;;;;;;7.95;5.05;;;17.10;51.80;;;;;;4227047;27;20377;-59
2022/02/13 08:28:26;;;;;;;6.40;4.20;;;17.20;51.50;;;;;;4227152;27;20043;-59
2022/02/13 08:30:51;;;;;;;6.05;4.60;;;17.20;51.40;;;;;;4226827;27;20089;-60
2022/02/13 08:33:13;;;;;;;5.18;4.20;;;17.20;51.40;;;;;;4225319;28;20054;-60
2022/02/13 08:35:35;;;;;;;8.55;4.55;;;17.20;51.40;;;;;;4209598;28;20567;-61
2022/02/13 08:37:57;;;;;;;6.45;4.10;;;17.20;51.40;;;;;;4210179;28;20483;-60
2022/02/13 08:40:20;;;;;;;4.60;4.20;;;17.10;51.60;;;;;;4208552;28;21352;-60
2022/02/13 08:42:42;;;;;;;6.50;4.75;;;17.00;51.80;;;;;;4209109;28;20048;-60
2022/02/13 08:45:04;;;;;;;4.78;4.18;;;16.90;52.00;;;;;;4221086;28;20487;-60
2022/02/13 08:47:28;;;;;;;5.25;4.25;;;16.80;52.20;;;;;;4198989;28;20059;-60
2022/02/13 08:49:50;;;;;;;5.90;4.40;;;16.80;52.40;;;;;;4197982;28;20196;-60
2022/02/13 08:52:12;;;;;;;4.45;4.05;;;16.80;52.50;;;;;;4220549;28;20043;-60
2022/02/13 08:54:35;;;;;;;5.75;4.18;;;16.80;53.20;;;;;;4193248;28;20056;-60
2022/02/13 08:56:57;;;;;;;5.18;3.97;;;16.80;52.40;;;;;;4205887;28;20909;-60
2022/02/13 08:59:19;;;;;;;5.68;4.63;;;16.80;52.50;;;;;;4209533;28;20047;-60
2022/02/13 09:01:43;;;;;;;5.72;3.90;;;16.80;52.50;;;;;;4217112;28;20051;-60
2022/02/13 09:04:07;;;;;;;6.85;5.10;;;16.80;52.50;;;;;;4209601;28;20047;-60
2022/02/13 09:06:30;;;;;;;5.45;4.38;;;16.80;52.50;;;;;;4224954;28;20044;-60
2022/02/13 09:08:52;;;;;;;6.40;4.22;;;16.70;52.60;;;;;;4226230;27;20044;-60
2022/02/13 09:11:14;;;;;;;9.23;4.65;;;16.80;53.30;;;;;;4214127;28;20044;-60
2022/02/13 09:13:37;;;;;;;5.65;3.83;;;16.80;52.60;;;;;;4209122;28;20126;-59
2022/02/13 09:15:59;;;;;;;7.10;4.88;;;16.80;52.60;;;;;;4209468;28;20048;-59
2022/02/13 09:18:22;;;;;;;7.90;5.00;;;16.80;52.80;;;;;;4210490;28;20040;-60
2022/02/13 09:20:45;;;;;;;8.52;5.18;;;16.80;53.00;;;;;;4210510;28;20067;-60
2022/02/13 09:23:07;;;;;;;8.02;4.68;;;16.70;53.00;;;;;;4209390;28;20130;-60
2022/02/13 09:25:29;;;;;;;7.00;4.47;;;16.70;53.10;;;;;;4209307;28;20407;-60
2022/02/13 09:27:52;;;;;;;4.93;4.22;;;16.70;53.20;;;;;;4209117;28;20047;-60
2022/02/13 09:30:14;;;;;;;7.78;4.72;;;16.60;53.40;;;;;;4209240;28;20089;-60
2022/02/13 09:32:39;;;;;;;9.70;4.90;;;16.50;53.50;;;;;;4218085;28;20058;-59
2022/02/13 09:35:02;;;;;;;5.55;4.18;;;16.60;53.60;;;;;;4192253;28;20052;-60
2022/02/13 09:37:25;;;;;;;7.20;4.75;;;16.50;53.60;;;;;;4192735;28;20044;-59
2022/02/13 09:39:47;;;;;;;8.85;4.80;;;16.50;53.60;;;;;;4192593;28;20079;-60
2022/02/13 09:42:11;;;;;;;6.13;4.75;;;16.40;53.70;;;;;;4209147;28;20047;-60
2022/02/13 09:44:34;;;;;;;7.03;4.30;;;16.40;53.70;;;;;;4209010;28;20135;-60
2022/02/13 09:46:56;;;;;;;5.78;4.72;;;16.40;54.00;;;;;;4196304;28;20052;-60
2022/02/13 09:49:19;;;;;;;7.32;5.10;;;16.50;53.80;;;;;;4208992;28;20059;-60
2022/02/13 09:51:41;;;;;;;6.15;4.45;;;16.90;53.10;;;;;;4192385;28;20048;-60
2022/02/13 09:54:06;;;;;;;6.70;4.45;;;17.30;52.10;;;;;;4192445;28;20055;-60
2022/02/13 09:56:28;;;;;;;5.88;4.75;;;17.80;50.80;;;;;;4194479;28;20150;-60
2022/02/13 09:58:51;;;;;;;7.30;4.32;;;18.40;49.60;;;;;;4196077;28;20044;-59
2022/02/13 10:01:13;;;;;;;7.85;4.43;;;19.10;48.40;;;;;;4212516;28;20048;-61
2022/02/13 10:03:37;;;;;;;6.47;4.55;;;19.70;47.00;;;;;;4212336;28;20048;-60
2022/02/13 10:06:01;;;;;;;6.90;4.47;;;20.30;45.80;;;;;;4222323;28;20051;-60
2022/02/13 10:08:30;;;;;;;5.97;4.35;;;20.80;44.80;;;;;;4227374;28;20043;-60
2022/02/13 10:11:10;;;;;;;4.85;3.75;;;21.20;44.00;;;;;;4211535;28;20052;-59
2022/02/13 10:13:45;;;;;;;6.25;4.75;;;21.40;43.20;;;;;;4212063;28;20047;-59
2022/02/13 10:16:14;;;;;;;4.78;4.00;;;21.60;42.80;;;;;;4206088;28;20126;-59
2022/02/13 10:18:44;;;;;;;5.60;4.47;;;21.50;43.00;;;;;;4211670;28;20052;-59
2022/02/13 10:21:07;;;;;;;4.97;4.57;;;21.40;43.00;;;;;;4212578;28;20052;-59
2022/02/13 10:23:29;;;;;;;6.70;4.68;;;21.20;43.50;;;;;;4212007;28;20051;-59
2022/02/13 10:25:51;;;;;;;6.82;4.53;;;20.90;43.90;;;;;;4212188;28;20097;-59
2022/02/13 10:28:16;;;;;;;5.57;4.47;;;20.70;44.50;;;;;;4212268;28;20123;-58
2022/02/13 10:30:40;;;;;;;3.83;3.50;;;20.50;45.20;;;;;;4212198;28;20052;-58
2022/02/13 10:33:19;;;;;;;5.75;3.88;;;20.30;45.60;;;;;;4212191;28;20056;-58
2022/02/13 10:35:41;;;;;;;5.82;4.07;;;20.20;45.80;;;;;;4208862;28;20448;-57
2022/02/13 10:38:03;;;;;;;5.38;4.25;;;20.10;46.00;;;;;;4213006;28;20040;-59
2022/02/13 10:40:27;;;;;;;5.35;4.10;;;20.10;46.00;;;;;;4195096;28;20064;-59
2022/02/13 10:42:50;;;;;;;6.35;4.35;;;20.10;46.30;;;;;;4195104;28;20098;-59
2022/02/13 10:45:23;;;;;;;5.57;3.65;;;20.20;46.30;;;;;;4194941;28;20549;-59
2022/02/13 10:47:47;;;;;;;7.82;4.60;;;20.20;46.30;;;;;;4194586;28;20052;-59
2022/02/13 10:50:09;;;;;;;4.63;3.85;;;20.30;46.10;;;;;;4211312;28;20097;-59
2022/02/13 10:52:32;;;;;;;5.25;4.35;;;20.30;46.00;;;;;;4211849;28;20052;-59
2022/02/13 10:54:55;;;;;;;6.32;4.30;;;20.30;46.00;;;;;;4221296;28;20402;-59
2022/02/13 10:57:17;;;;;;;4.03;3.70;;;20.30;45.90;;;;;;4212896;27;20098;-58
2022/02/13 10:59:39;;;;;;;4.50;3.88;;;20.40;46.00;;;;;;4217258;28;20085;-59
2022/02/13 11:02:05;;;;;;;7.45;4.50;;;20.40;45.90;;;;;;4212661;28;20067;-59
2022/02/13 11:04:29;;;;;;;5.63;4.25;;;20.40;45.80;;;;;;4211395;28;20051;-59
2022/02/13 11:06:51;;;;;;;5.22;4.55;;;20.50;45.80;;;;;;4209453;28;20052;-60
2022/02/13 11:09:18;;;;;;;5.28;3.72;;;20.50;45.80;;;;;;4211128;28;20525;-59
2022/02/13 11:11:41;;;;;;;4.50;4.10;;;20.40;45.90;;;;;;4218445;28;20048;-59
2022/02/13 11:14:03;;;;;;;6.93;4.10;;;20.30;46.40;;;;;;4228086;28;20105;-59
2022/02/13 11:16:32;;;;;;;6.70;4.90;;;20.20;46.70;;;;;;4228170;28;20047;-59
2022/02/13 11:18:58;;;;;;;5.10;4.60;;;20.20;46.90;;;;;;4209061;28;20162;-59
2022/02/13 11:21:22;;;;;;;6.35;4.05;;;20.10;46.80;;;;;;4194643;28;20054;-59
2022/02/13 11:23:52;;;;;;;4.80;4.30;;;20.10;46.90;;;;;;4194308;28;20048;-60
2022/02/13 11:26:14;;;;;;;7.22;4.40;;;20.10;46.80;;;;;;4193884;28;20052;-59
2022/02/13 11:28:58;;;;;;;5.60;5.10;;;20.20;46.80;;;;;;4208308;28;20058;-59
2022/02/13 11:31:39;;;;;;;5.25;3.83;;;20.10;46.70;;;;;;4227216;27;20627;-59
2022/02/13 11:34:02;;;;;;;6.68;4.72;;;20.20;46.80;;;;;;4227442;27;20076;-58
2022/02/13 11:36:41;;;;;;;7.53;5.28;;;20.20;46.60;;;;;;4225959;27;20051;-59
2022/02/13 11:39:03;;;;;;;7.43;4.78;;;20.20;46.80;;;;;;4227531;27;20044;-58
2022/02/13 11:42:08;;;;;;;4.93;4.10;;;20.20;46.90;;;;;;4218318;28;20052;-59
2022/02/13 11:44:45;;;;;;;9.10;4.28;;;20.20;46.90;;;;;;4210493;28;20547;-59
2022/02/13 11:47:09;;;;;;;4.75;4.32;;;20.10;47.00;;;;;;4210662;28;20134;-59
2022/02/13 11:49:33;;;;;;;5.75;4.45;;;20.00;47.40;;;;;;4210958;28;20226;-60
2022/02/13 11:52:01;;;;;;;5.90;4.40;;;19.90;47.60;;;;;;4210733;28;20036;-59
2022/02/13 11:54:54;;;;;;;4.75;3.92;;;19.90;47.80;;;;;;4210723;28;20043;-59
2022/02/13 11:57:20;;;;;;;6.40;4.88;;;19.80;47.80;;;;;;4224897;27;20050;-59
2022/02/13 11:59:49;;;;;;;4.90;4.40;;;19.90;47.90;;;;;;4227460;27;20058;-59
2022/02/13 12:02:15;;;;;;;5.65;4.80;;;19.80;47.80;;;;;;4225182;27;20671;-59
2022/02/13 12:05:13;;;;;;;7.82;4.85;;;19.80;47.70;;;;;;4210385;28;20377;-59
2022/02/13 12:07:36;;;;;;;4.78;4.22;;;19.80;47.80;;;;;;4210160;28;20052;-59
2022/02/13 12:09:58;;;;;;;4.95;4.55;;;19.80;47.90;;;;;;4220962;28;20071;-58
2022/02/13 12:12:22;;;;;;;4.95;4.00;;;19.80;47.90;;;;;;4196421;28;20071;-59
2022/02/13 12:14:46;;;;;;;7.85;4.63;;;19.80;47.90;;;;;;4209791;28;20051;-59
2022/02/13 12:17:08;;;;;;;5.18;4.30;;;19.80;48.00;;;;;;4208546;28;20056;-59
2022/02/13 12:19:33;;;;;;;4.75;4.22;;;19.70;48.20;;;;;;4193306;28;20064;-59
2022/02/13 12:22:12;;;;;;;4.80;4.35;;;19.60;49.00;;;;;;4224186;28;20146;-59
2022/02/13 12:24:34;;;;;;;11.75;4.47;;;19.40;48.80;;;;;;4208340;28;20051;-60
2022/02/13 12:27:00;;;;;;;4.68;4.30;;;19.40;48.80;;;;;;4210017;28;20082;-59